Time;durP1;ratioP1;P1;durP2;ratioP2;P2;SDS_P1;SDS_P2;PMS_P1;PMS_P2;Temp;Humidity;BMP_temperature;BMP_pressure;BME280_temperature;BME280_humidity;BME280_pressure;Samples;Min_cycle;Max_cycle;Signal;HPM_P1;HPM_P2
2023/05/08 01:13:05;;;;;;;37.30;10.93;;;21.20;58.30;;;;;;5054517;28;20211;-96
2023/05/08 01:19:47;;;;;;;25.37;9.93;;;21.20;58.30;;;;;;5024084;28;20215;-96
2023/05/08 01:22:57;;;;;;;23.23;8.97;;;21.20;58.30;;;;;;5026811;28;20213;-96
2023/05/08 01:26:10;;;;;;;30.13;10.47;;;21.10;58.20;;;;;;5001562;28;20206;-96
2023/05/08 01:32:30;;;;;;;25.87;11.00;;;21.10;58.20;;;;;;5083842;23;20229;-96
2023/05/08 01:35:32;;;;;;;24.27;11.00;;;21.10;58.30;;;;;;4977300;28;20203;-96
2023/05/08 01:56:50;;;;;;;34.40;11.73;;;21.10;58.30;;;;;;5031243;28;20224;-96
2023/05/08 01:59:21;;;;;;;36.83;11.37;;;21.00;58.20;;;;;;5025746;28;20237;-96
2023/05/08 02:01:57;;;;;;;22.80;11.40;;;21.00;58.20;;;;;;5021940;28;20276;-96
2023/05/08 02:04:27;;;;;;;25.70;11.97;;;21.00;58.30;;;;;;5022623;28;20201;-96
2023/05/08 02:07:00;;;;;;;22.50;11.57;;;21.00;58.20;;;;;;5026377;28;20205;-96
2023/05/08 02:13:31;;;;;;;32.47;10.80;;;21.00;58.30;;;;;;5036954;28;20216;-96
2023/05/08 02:16:03;;;;;;;20.57;10.37;;;20.90;58.20;;;;;;5048216;28;20228;-96
2023/05/08 02:18:31;;;;;;;19.83;10.47;;;21.00;58.30;;;;;;5051501;28;20206;-96
2023/05/08 02:24:47;;;;;;;31.13;11.33;;;20.90;58.20;;;;;;5040484;28;20200;-96
2023/05/08 02:27:38;;;;;;;31.23;11.60;;;20.90;58.20;;;;;;5038864;28;20227;-96
2023/05/08 02:42:01;;;;;;;26.47;10.50;;;20.90;58.30;;;;;;5023321;28;20678;-96
2023/05/08 02:44:34;;;;;;;29.60;10.73;;;20.90;58.30;;;;;;5030827;28;20229;-96
2023/05/08 02:47:29;;;;;;;28.70;10.00;;;20.90;58.90;;;;;;5031472;28;20588;-96
2023/05/08 02:50:03;;;;;;;35.37;11.03;;;20.90;58.30;;;;;;5009179;28;20669;-96
2023/05/08 02:52:36;;;;;;;30.43;10.57;;;20.80;58.20;;;;;;5016823;28;20278;-96
2023/05/08 02:55:15;;;;;;;33.50;10.77;;;20.80;58.30;;;;;;5037153;28;20204;-96
2023/05/08 02:57:56;;;;;;;26.87;9.93;;;20.80;58.20;;;;;;5020139;28;20623;-96
2023/05/08 03:00:28;;;;;;;26.33;9.87;;;20.80;58.20;;;;;;5006407;28;20206;-96
2023/05/08 03:03:01;;;;;;;41.23;10.80;;;20.80;58.20;;;;;;5013657;28;20705;-96
2023/05/08 03:05:32;;;;;;;34.30;10.33;;;20.80;58.20;;;;;;5015839;28;20217;-96
2023/05/08 03:08:05;;;;;;;27.57;10.00;;;20.80;58.30;;;;;;5000261;28;20198;-96
2023/05/08 03:10:35;;;;;;;27.10;9.97;;;20.80;58.30;;;;;;5000508;28;20233;-96
2023/05/08 03:13:22;;;;;;;19.90;8.77;;;20.80;58.30;;;;;;5008420;28;20202;-96
2023/05/08 03:15:54;;;;;;;24.57;9.10;;;20.80;58.30;;;;;;5015603;28;20260;-96
2023/05/08 03:18:26;;;;;;;27.60;9.17;;;20.80;58.30;;;;;;5003809;28;20269;-96
2023/05/08 03:20:58;;;;;;;22.70;8.23;;;20.80;58.30;;;;;;5005820;28;20233;-96
2023/05/08 03:23:30;;;;;;;23.57;9.30;;;20.80;58.30;;;;;;5012435;28;20207;-96
2023/05/08 03:26:02;;;;;;;21.47;8.83;;;20.80;58.30;;;;;;5022083;28;20214;-96
2023/05/08 03:28:32;;;;;;;36.03;9.30;;;20.80;58.30;;;;;;5018195;28;20643;-96
2023/05/08 03:31:00;;;;;;;17.33;7.50;;;20.80;58.30;;;;;;5017669;28;20234;-96
2023/05/08 03:33:30;;;;;;;23.47;8.87;;;20.70;58.30;;;;;;5007803;28;20206;-96
2023/05/08 03:35:59;;;;;;;18.67;7.80;;;20.70;58.30;;;;;;5001182;28;20261;-96
2023/05/08 03:38:26;;;;;;;19.90;7.77;;;20.70;58.30;;;;;;5003462;28;20258;-96
2023/05/08 03:40:54;;;;;;;27.83;8.53;;;20.70;58.30;;;;;;5023096;28;20552;-96
2023/05/08 03:43:23;;;;;;;18.03;7.73;;;20.70;58.30;;;;;;5025952;28;20273;-96
2023/05/08 03:46:00;;;;;;;30.03;8.27;;;20.70;58.40;;;;;;5028019;28;20236;-96
2023/05/08 03:48:41;;;;;;;24.47;8.50;;;20.70;58.30;;;;;;5034932;28;20301;-96
2023/05/08 03:51:12;;;;;;;22.23;8.43;;;20.70;58.30;;;;;;5033921;28;20228;-96
2023/05/08 03:53:40;;;;;;;21.97;8.00;;;20.60;58.30;;;;;;5020143;28;20226;-96
2023/05/08 03:56:11;;;;;;;36.73;9.17;;;20.70;58.30;;;;;;5007893;28;20227;-96
2023/05/08 03:58:50;;;;;;;20.60;7.50;;;20.60;58.30;;;;;;5008303;28;20202;-96
2023/05/08 04:01:30;;;;;;;23.33;7.70;;;20.70;58.40;;;;;;5039796;28;20208;-96
2023/05/08 04:04:06;;;;;;;21.07;7.77;;;20.70;58.40;;;;;;5046824;28;20204;-96
2023/05/08 04:06:39;;;;;;;25.37;8.30;;;20.70;58.40;;;;;;5016694;28;20206;-96
2023/05/08 04:09:17;;;;;;;19.13;7.63;;;20.70;58.40;;;;;;5013281;28;20206;-96
2023/05/08 04:11:55;;;;;;;25.57;8.30;;;20.70;58.40;;;;;;5004379;28;20217;-96
2023/05/08 04:14:27;;;;;;;30.60;8.57;;;20.70;58.40;;;;;;5022085;28;20649;-96
2023/05/08 04:17:26;;;;;;;18.70;7.17;;;20.70;58.40;;;;;;5030713;28;20478;-96
2023/05/08 04:20:11;;;;;;;15.07;6.93;;;20.60;58.90;;;;;;5020943;28;20712;-96
2023/05/08 04:22:53;;;;;;;38.17;9.23;;;20.60;58.30;;;;;;5032716;28;20219;-96
2023/05/08 04:25:22;;;;;;;27.63;8.43;;;20.60;58.30;;;;;;5035376;28;20715;-96
2023/05/08 04:27:50;;;;;;;40.77;9.20;;;20.60;58.30;;;;;;5035209;28;20672;-96
2023/05/08 04:30:22;;;;;;;23.30;7.87;;;20.60;58.30;;;;;;5033234;28;20641;-96
2023/05/08 04:33:09;;;;;;;26.73;7.63;;;20.60;58.30;;;;;;5013122;28;20205;-96
2023/05/08 04:35:40;;;;;;;28.03;7.60;;;20.60;58.30;;;;;;4995624;28;20257;-96
2023/05/08 04:38:28;;;;;;;25.33;7.47;;;20.60;58.30;;;;;;5007990;28;20198;-96
2023/05/08 04:47:36;;;;;;;28.87;8.03;;;20.60;58.30;;;;;;5003278;28;20227;-93
2023/05/08 04:50:05;;;;;;;29.30;8.07;;;20.60;58.30;;;;;;4990445;28;20194;-92
2023/05/08 04:52:32;;;;;;;29.20;8.03;;;20.60;58.30;;;;;;5009197;28;20755;-93
2023/05/08 04:54:59;;;;;;;34.33;8.97;;;20.60;58.30;;;;;;5003631;28;20720;-92
2023/05/08 04:57:26;;;;;;;30.43;8.47;;;20.50;58.20;;;;;;5005407;28;20260;-92
2023/05/08 04:59:55;;;;;;;40.80;9.60;;;20.50;58.20;;;;;;5000650;28;20213;-94
2023/05/08 05:02:22;;;;;;;30.20;8.77;;;20.50;58.20;;;;;;5006132;28;20654;-92
2023/05/08 05:04:50;;;;;;;47.40;9.57;;;20.50;58.20;;;;;;5008092;28;20237;-93
2023/05/08 05:07:18;;;;;;;26.23;8.03;;;20.50;58.20;;;;;;4999124;28;20650;-92
2023/05/08 05:09:45;;;;;;;33.03;8.50;;;20.50;58.20;;;;;;5002626;28;20622;-93
2023/05/08 05:12:12;;;;;;;32.27;7.77;;;20.50;58.20;;;;;;5008755;28;20263;-94
2023/05/08 05:14:39;;;;;;;28.43;8.53;;;20.50;58.20;;;;;;5009235;28;20635;-92
2023/05/08 05:17:06;;;;;;;21.40;8.13;;;20.50;58.20;;;;;;5007266;28;20855;-93
2023/05/08 05:19:33;;;;;;;25.17;7.53;;;20.50;58.20;;;;;;5005980;28;20207;-91
2023/05/08 05:22:00;;;;;;;35.87;8.90;;;20.50;58.20;;;;;;5006375;28;20263;-91
2023/05/08 05:24:28;;;;;;;44.07;9.57;;;20.50;58.20;;;;;;4995854;28;20209;-93
2023/05/08 05:26:56;;;;;;;43.60;8.90;;;20.50;58.20;;;;;;4999171;28;20815;-94
2023/05/08 05:29:23;;;;;;;51.10;10.43;;;20.50;58.20;;;;;;5006760;28;20226;-92
2023/05/08 05:31:53;;;;;;;27.27;8.17;;;20.50;58.20;;;;;;5031519;28;20209;-94
2023/05/08 05:34:20;;;;;;;32.73;8.83;;;20.50;58.20;;;;;;5024018;28;20198;-93
2023/05/08 05:36:47;;;;;;;22.37;7.77;;;20.50;58.20;;;;;;5013117;28;20318;-95
2023/05/08 05:39:15;;;;;;;22.97;7.93;;;20.50;58.20;;;;;;5013779;28;20233;-92
2023/05/08 05:41:46;;;;;;;18.20;6.83;;;20.50;58.30;;;;;;5012746;28;20197;-94
2023/05/08 05:44:15;;;;;;;24.97;7.93;;;20.50;58.30;;;;;;5011258;28;20209;-95
2023/05/08 05:46:42;;;;;;;19.53;7.67;;;20.40;58.20;;;;;;5011198;28;20182;-95
2023/05/08 05:49:15;;;;;;;24.43;7.67;;;20.40;58.20;;;;;;5011262;28;20226;-95
2023/05/08 05:51:42;;;;;;;29.13;8.03;;;20.40;58.20;;;;;;5010357;28;20677;-94
2023/05/08 05:54:09;;;;;;;42.07;9.23;;;20.40;58.20;;;;;;5009420;28;20213;-95
2023/05/08 05:56:36;;;;;;;25.63;8.23;;;20.40;58.20;;;;;;4999154;28;20325;-94
2023/05/08 05:59:05;;;;;;;31.43;7.93;;;20.40;58.20;;;;;;4993946;28;20209;-94
2023/05/08 06:01:33;;;;;;;29.27;7.77;;;20.40;58.20;;;;;;5001210;28;20226;-94
2023/05/08 06:04:01;;;;;;;35.67;8.33;;;20.40;58.20;;;;;;5001695;28;20217;-95
2023/05/08 06:06:28;;;;;;;32.77;8.77;;;20.40;58.20;;;;;;5008215;28;20623;-94
2023/05/08 06:08:55;;;;;;;29.30;8.03;;;20.40;58.20;;;;;;5008015;28;20907;-95
2023/05/08 06:11:23;;;;;;;24.80;7.27;;;20.40;58.20;;;;;;5008226;28;20201;-94
2023/05/08 06:13:50;;;;;;;27.43;7.80;;;20.40;58.20;;;;;;5004890;28;20236;-94
2023/05/08 06:16:19;;;;;;;30.20;7.97;;;20.40;58.30;;;;;;4997026;28;20260;-94
2023/05/08 06:18:46;;;;;;;29.13;8.13;;;20.40;58.30;;;;;;5009438;28;20256;-93
2023/05/08 06:21:13;;;;;;;30.40;7.40;;;20.40;58.30;;;;;;4999403;28;20205;-95
2023/05/08 06:23:41;;;;;;;29.70;7.80;;;20.40;58.30;;;;;;4989662;28;20253;-93
2023/05/08 06:26:08;;;;;;;34.80;8.33;;;20.40;58.30;;;;;;4990519;28;20289;-93
2023/05/08 06:28:35;;;;;;;27.13;7.67;;;20.40;58.30;;;;;;5003344;28;20275;-94
2023/05/08 06:31:02;;;;;;;27.83;8.17;;;20.40;58.30;;;;;;5008091;28;20661;-94
2023/05/08 06:33:31;;;;;;;32.60;8.23;;;20.40;58.30;;;;;;5007771;28;20225;-92
2023/05/08 06:35:58;;;;;;;34.67;8.47;;;20.40;58.30;;;;;;4998595;28;20292;-94
2023/05/08 06:38:25;;;;;;;38.10;8.97;;;20.40;58.30;;;;;;5003172;28;20257;-96
2023/05/08 06:40:52;;;;;;;28.10;7.83;;;20.40;58.40;;;;;;5001658;28;20280;-92
2023/05/08 06:43:19;;;;;;;29.90;8.13;;;20.40;58.40;;;;;;4998282;28;20212;-91
2023/05/08 06:45:47;;;;;;;31.13;8.43;;;20.40;58.40;;;;;;5000236;28;20205;-94
2023/05/08 06:48:13;;;;;;;28.77;8.03;;;20.40;58.40;;;;;;4993883;28;20305;-93
2023/05/08 06:50:42;;;;;;;28.53;7.83;;;20.30;58.30;;;;;;4990274;28;20238;-91
2023/05/08 06:53:10;;;;;;;22.70;7.33;;;20.40;58.40;;;;;;5008902;28;20217;-94
2023/05/08 06:55:37;;;;;;;20.93;7.67;;;20.40;58.40;;;;;;5008668;28;20312;-95
2023/05/08 06:58:04;;;;;;;32.60;7.67;;;20.40;58.40;;;;;;5007174;28;20237;-93
2023/05/08 07:00:31;;;;;;;30.00;7.60;;;20.40;58.40;;;;;;5008024;28;20210;-93
2023/05/08 07:02:58;;;;;;;29.57;7.97;;;20.40;58.40;;;;;;5005969;28;20198;-94
2023/05/08 07:05:25;;;;;;;42.53;9.23;;;20.40;58.40;;;;;;5007212;28;20236;-93
2023/05/08 07:07:54;;;;;;;27.47;8.80;;;20.30;58.30;;;;;;5004757;28;20321;-94
2023/05/08 07:10:21;;;;;;;29.97;8.03;;;20.30;58.40;;;;;;5009843;28;20209;-96
2023/05/08 07:12:48;;;;;;;23.10;7.57;;;20.40;58.40;;;;;;5011179;28;20212;-94
2023/05/08 07:15:16;;;;;;;22.73;7.23;;;20.40;58.50;;;;;;5009041;28;20414;-93
2023/05/08 07:17:43;;;;;;;25.57;7.40;;;20.40;59.00;;;;;;5010996;28;20229;-93
2023/05/08 07:20:10;;;;;;;32.63;7.97;;;20.40;58.40;;;;;;5000719;28;20615;-95
2023/05/08 07:22:37;;;;;;;31.33;8.33;;;20.30;58.40;;;;;;4995284;28;20272;-92
2023/05/08 07:25:07;;;;;;;36.53;8.60;;;20.40;58.40;;;;;;5000537;28;20268;-92
2023/05/08 07:27:34;;;;;;;34.60;8.50;;;20.40;58.50;;;;;;5005681;28;20237;-92
2023/05/08 07:30:03;;;;;;;31.70;8.30;;;20.40;58.50;;;;;;5006935;28;20221;-93
2023/05/08 07:32:31;;;;;;;32.10;8.83;;;20.40;58.50;;;;;;5011365;28;20205;-93
2023/05/08 07:34:58;;;;;;;31.13;8.37;;;20.30;58.40;;;;;;5008961;28;20204;-94
2023/05/08 07:37:25;;;;;;;40.03;9.00;;;20.30;58.40;;;;;;5010741;28;20316;-95
2023/05/08 07:39:52;;;;;;;39.33;8.87;;;20.40;58.50;;;;;;5010123;28;20260;-93
2023/05/08 07:42:21;;;;;;;25.27;7.10;;;20.40;58.40;;;;;;5009435;28;20233;-94
2023/05/08 07:44:48;;;;;;;28.53;7.63;;;20.40;58.40;;;;;;5010951;28;20236;-95
2023/05/08 07:47:15;;;;;;;29.73;7.97;;;20.30;58.40;;;;;;5009994;28;20280;-94
2023/05/08 07:49:42;;;;;;;48.07;9.77;;;20.40;58.50;;;;;;5007827;28;20239;-93
2023/05/08 07:52:09;;;;;;;32.27;7.90;;;20.40;58.50;;;;;;5006634;28;20321;-95
2023/05/08 07:54:36;;;;;;;34.77;8.47;;;20.40;58.50;;;;;;4991957;28;20209;-92
2023/05/08 07:57:04;;;;;;;33.93;8.77;;;20.40;59.10;;;;;;4994324;28;20316;-93
2023/05/08 07:59:33;;;;;;;29.07;7.80;;;20.40;58.50;;;;;;5002118;28;20732;-94
2023/05/08 08:02:00;;;;;;;36.17;8.83;;;20.30;58.40;;;;;;5008919;28;20660;-95
2023/05/08 08:04:27;;;;;;;38.33;9.13;;;20.40;58.50;;;;;;5011131;28;20213;-93
2023/05/08 08:06:54;;;;;;;22.80;7.17;;;20.40;58.50;;;;;;5009533;28;20279;-93
2023/05/08 08:09:21;;;;;;;34.97;8.47;;;20.40;58.50;;;;;;5007072;28;20605;-95
2023/05/08 08:11:48;;;;;;;30.10;7.60;;;20.40;58.50;;;;;;5009079;28;20277;-94
2023/05/08 08:14:16;;;;;;;36.63;8.73;;;20.40;58.50;;;;;;5004952;28;20306;-95
2023/05/08 08:16:44;;;;;;;35.60;8.50;;;20.40;58.50;;;;;;5003135;28;20882;-95
2023/05/08 08:19:11;;;;;;;25.07;8.33;;;20.40;58.50;;;;;;5004433;28;20209;-94
2023/05/08 08:21:42;;;;;;;22.67;7.53;;;20.40;58.50;;;;;;5002641;28;20525;-89
2023/05/08 08:24:09;;;;;;;34.63;9.90;;;20.40;58.50;;;;;;5002852;28;20268;-94
2023/05/08 08:26:36;;;;;;;78.57;13.57;;;20.40;58.50;;;;;;5007778;28;21007;-93
2023/05/08 08:29:03;;;;;;;41.93;10.70;;;20.40;58.50;;;;;;5001610;28;20288;-94
2023/05/08 08:31:32;;;;;;;36.90;9.43;;;20.40;58.60;;;;;;5010267;28;20580;-93
2023/05/08 08:34:01;;;;;;;29.00;8.63;;;20.40;58.60;;;;;;5010681;28;20216;-94
2023/05/08 08:36:28;;;;;;;23.40;8.13;;;20.40;58.60;;;;;;5010905;28;20210;-93
2023/05/08 08:38:55;;;;;;;35.33;9.00;;;20.40;58.50;;;;;;5009632;28;20253;-94
2023/05/08 08:41:22;;;;;;;25.17;8.00;;;20.40;58.60;;;;;;5010323;28;20205;-94
2023/05/08 08:43:49;;;;;;;26.27;8.37;;;20.40;58.60;;;;;;5010045;28;20271;-94
2023/05/08 08:46:19;;;;;;;38.10;9.70;;;20.50;58.60;;;;;;5004269;28;20343;-93
2023/05/08 08:48:47;;;;;;;27.13;8.27;;;20.40;58.60;;;;;;5010225;28;20646;-94
2023/05/08 08:51:27;;;;;;;30.47;9.10;;;20.40;58.50;;;;;;5009305;28;20530;-94
2023/05/08 08:54:02;;;;;;;30.30;7.80;;;20.40;58.60;;;;;;4997927;28;20666;-94
2023/05/08 08:56:31;;;;;;;62.37;13.60;;;20.50;58.60;;;;;;5005357;28;20289;-92
2023/05/08 08:59:00;;;;;;;98.30;17.23;;;20.40;58.90;;;;;;5006091;28;20704;-93
2023/05/08 09:01:28;;;;;;;50.07;13.33;;;20.40;59.00;;;;;;4995412;28;20194;-93
2023/05/08 09:03:58;;;;;;;36.10;12.60;;;20.40;58.90;;;;;;5008446;28;20197;-93
2023/05/08 09:06:27;;;;;;;40.93;12.27;;;20.40;58.90;;;;;;5001595;28;20204;-94
2023/05/08 09:08:56;;;;;;;41.80;11.60;;;20.40;58.90;;;;;;4993809;28;20217;-94
2023/05/08 09:11:23;;;;;;;45.00;12.57;;;20.40;58.90;;;;;;5003900;28;20214;-92
2023/05/08 09:13:51;;;;;;;35.10;11.53;;;20.40;58.80;;;;;;5027325;28;20191;-96
2023/05/08 09:16:18;;;;;;;50.17;13.20;;;20.40;58.80;;;;;;5031845;28;20201;-95
2023/05/08 09:18:46;;;;;;;52.67;14.30;;;20.40;58.80;;;;;;5018289;28;20245;-96
2023/05/08 09:21:13;;;;;;;39.97;13.30;;;20.40;58.80;;;;;;5025072;28;20214;-96
2023/05/08 09:27:00;;;;;;;38.80;14.23;;;20.40;58.80;;;;;;5088784;28;20517;-96
2023/05/08 09:29:30;;;;;;;40.27;14.20;;;20.40;58.90;;;;;;5060167;28;20208;-92
2023/05/08 09:31:58;;;;;;;36.17;13.93;;;20.40;58.90;;;;;;5048544;28;20745;-92
2023/05/08 09:34:27;;;;;;;44.57;15.23;;;20.40;58.90;;;;;;5059443;28;20227;-92
2023/05/08 09:36:54;;;;;;;45.27;15.20;;;20.40;58.90;;;;;;5053406;28;20668;-89
2023/05/08 09:39:25;;;;;;;41.97;13.07;;;20.40;58.90;;;;;;5045532;28;20285;-89
2023/05/08 09:42:04;;;;;;;39.13;12.97;;;20.40;58.90;;;;;;5046235;28;20192;-89
2023/05/08 09:44:44;;;;;;;40.13;13.17;;;20.40;58.90;;;;;;5045591;28;20222;-90
2023/05/08 09:47:13;;;;;;;45.40;12.63;;;20.40;58.90;;;;;;5063203;28;20230;-89
2023/05/08 09:49:40;;;;;;;45.80;13.17;;;20.40;58.90;;;;;;5064313;28;20295;-90
2023/05/08 09:52:08;;;;;;;40.20;12.40;;;20.40;58.90;;;;;;5065004;28;20616;-89
2023/05/08 09:54:35;;;;;;;99.63;18.40;;;20.40;58.90;;;;;;5045520;28;20224;-89
2023/05/08 09:57:12;;;;;;;65.30;14.63;;;20.40;58.90;;;;;;5048977;28;20207;-91
2023/05/08 09:59:39;;;;;;;40.03;13.13;;;20.40;59.00;;;;;;5048356;28;20314;-92
2023/05/08 10:02:10;;;;;;;48.20;12.53;;;20.40;58.90;;;;;;5064093;28;20309;-90
2023/05/08 10:04:38;;;;;;;48.73;12.73;;;20.40;59.00;;;;;;5051569;28;20224;-90
2023/05/08 10:07:05;;;;;;;44.00;12.67;;;20.40;58.90;;;;;;5044688;28;20208;-90
2023/05/08 10:09:32;;;;;;;74.97;15.27;;;20.40;58.90;;;;;;5045012;28;20641;-89
2023/05/08 10:11:59;;;;;;;46.87;11.43;;;20.40;58.90;;;;;;5053241;28;20211;-91
2023/05/08 10:14:27;;;;;;;55.67;13.20;;;20.50;59.10;;;;;;5045123;28;20248;-91
2023/05/08 10:16:55;;;;;;;53.63;12.37;;;20.50;59.10;;;;;;5060295;28;20318;-91
2023/05/08 10:19:24;;;;;;;58.43;13.33;;;20.50;59.10;;;;;;5048313;28;20681;-90
2023/05/08 10:21:52;;;;;;;52.23;12.03;;;20.50;59.10;;;;;;5043654;28;20200;-90
2023/05/08 10:24:21;;;;;;;47.77;12.00;;;20.50;59.10;;;;;;5062240;28;20211;-91
2023/05/08 10:26:56;;;;;;;43.90;11.60;;;20.50;59.10;;;;;;5044035;28;20748;-90
2023/05/08 10:29:33;;;;;;;44.50;11.63;;;20.60;59.30;;;;;;5051135;28;20294;-90
2023/05/08 10:32:01;;;;;;;33.97;10.73;;;20.60;59.30;;;;;;5053947;28;20235;-90
2023/05/08 10:34:31;;;;;;;39.57;11.03;;;20.70;59.40;;;;;;5056082;28;20227;-90
2023/05/08 10:36:58;;;;;;;44.30;10.87;;;20.60;59.30;;;;;;5053894;28;20232;-90
2023/05/08 10:39:26;;;;;;;39.90;11.50;;;20.70;59.40;;;;;;5049928;28;20263;-90
2023/05/08 10:41:54;;;;;;;40.13;10.97;;;20.70;59.40;;;;;;5050582;28;20258;-90
2023/05/08 10:44:21;;;;;;;40.23;11.47;;;20.80;59.50;;;;;;5036976;28;20636;-90
2023/05/08 10:46:55;;;;;;;41.27;11.03;;;20.80;59.50;;;;;;5034388;28;20254;-91
2023/05/08 10:49:31;;;;;;;47.03;11.50;;;20.80;59.60;;;;;;5030755;28;20294;-90
2023/05/08 10:52:12;;;;;;;40.93;11.17;;;20.90;59.60;;;;;;5040111;28;20313;-90
2023/05/08 10:55:03;;;;;;;40.20;11.33;;;20.90;59.70;;;;;;5053243;28;20254;-95
2023/05/08 10:57:30;;;;;;;44.83;13.67;;;20.90;59.70;;;;;;5053348;28;20212;-96
2023/05/08 11:00:23;;;;;;;51.57;15.43;;;20.90;59.70;;;;;;5047922;28;20223;-96
2023/05/08 11:03:19;;;;;;;42.03;13.53;;;20.90;59.70;;;;;;5056098;28;20215;-95
2023/05/08 11:05:47;;;;;;;35.00;13.10;;;21.00;59.80;;;;;;5034397;28;20252;-96
2023/05/08 11:08:18;;;;;;;55.30;15.00;;;21.10;59.70;;;;;;5047898;28;20204;-96
2023/05/08 11:11:00;;;;;;;40.20;14.47;;;21.10;59.80;;;;;;5041527;28;20325;-96
2023/05/08 11:13:28;;;;;;;58.93;15.93;;;21.10;59.70;;;;;;5038341;28;20682;-94
2023/05/08 11:15:57;;;;;;;36.93;13.37;;;21.20;59.80;;;;;;5058008;28;20208;-95
2023/05/08 11:18:28;;;;;;;46.17;13.77;;;21.10;59.70;;;;;;5058719;28;20209;-95
2023/05/08 11:21:20;;;;;;;39.70;13.90;;;21.20;59.70;;;;;;5038476;28;20219;-94
2023/05/08 11:23:56;;;;;;;74.47;17.07;;;21.20;59.80;;;;;;5045065;28;20282;-95
2023/05/08 11:26:39;;;;;;;44.20;13.77;;;21.20;59.70;;;;;;5042577;28;20296;-96
2023/05/08 11:29:16;;;;;;;66.87;16.93;;;21.30;59.80;;;;;;5035868;28;20308;-90
2023/05/08 11:31:50;;;;;;;44.57;14.70;;;21.30;60.20;;;;;;5032157;28;20742;-95
2023/05/08 11:34:48;;;;;;;49.50;15.63;;;21.30;60.70;;;;;;5038574;28;20720;-94
2023/05/08 11:37:18;;;;;;;65.90;16.70;;;21.30;59.90;;;;;;5031951;28;20208;-91
2023/05/08 11:40:37;;;;;;;48.97;14.70;;;21.30;60.00;;;;;;5034298;28;20207;-96
2023/05/08 11:43:24;;;;;;;48.87;14.80;;;21.30;60.20;;;;;;5029887;28;20228;-92
2023/05/08 11:45:53;;;;;;;58.37;15.00;;;21.30;60.00;;;;;;5043309;28;20317;-91
2023/05/08 11:48:23;;;;;;;41.63;13.07;;;21.30;59.80;;;;;;5039893;28;20217;-92
2023/05/08 11:50:51;;;;;;;45.73;13.77;;;21.30;59.90;;;;;;5049536;28;20232;-90
2023/05/08 11:53:18;;;;;;;46.60;13.27;;;21.30;59.90;;;;;;5042877;28;20713;-92
2023/05/08 11:55:48;;;;;;;38.20;11.97;;;21.30;59.80;;;;;;5031096;28;20279;-91
2023/05/08 11:58:16;;;;;;;33.13;11.63;;;21.30;59.90;;;;;;5029871;28;20200;-94
2023/05/08 12:00:44;;;;;;;42.33;12.10;;;21.30;60.60;;;;;;5039935;28;20258;-92
2023/05/08 12:03:16;;;;;;;41.87;12.40;;;21.30;59.90;;;;;;5040975;28;20203;-92
2023/05/08 12:05:43;;;;;;;44.10;12.73;;;21.40;60.00;;;;;;5044368;28;20281;-92
2023/05/08 12:08:13;;;;;;;40.33;12.00;;;21.40;60.00;;;;;;5041678;28;20197;-93
2023/05/08 12:10:41;;;;;;;44.70;12.03;;;21.40;60.00;;;;;;5043448;28;20217;-93
2023/05/08 12:13:18;;;;;;;54.77;13.33;;;21.40;60.00;;;;;;5035135;28;20237;-91
2023/05/08 12:15:46;;;;;;;40.43;11.90;;;21.40;60.10;;;;;;5030135;28;20618;-91
2023/05/08 12:18:13;;;;;;;53.27;13.57;;;21.40;60.00;;;;;;5029456;28;20846;-93
2023/05/08 12:20:40;;;;;;;42.83;12.17;;;21.40;60.70;;;;;;5030103;28;20323;-91
2023/05/08 12:23:08;;;;;;;33.83;11.43;;;21.50;60.00;;;;;;5030281;28;20216;-92
2023/05/08 12:25:38;;;;;;;37.63;11.50;;;21.40;60.00;;;;;;5033172;28;20243;-92
2023/05/08 12:28:07;;;;;;;38.10;11.00;;;21.50;60.10;;;;;;5044789;28;20225;-92
2023/05/08 12:30:34;;;;;;;40.17;11.73;;;21.50;60.00;;;;;;5034890;28;20291;-92
2023/05/08 12:33:03;;;;;;;45.07;11.97;;;21.50;60.00;;;;;;5044668;28;20210;-91
2023/05/08 12:35:30;;;;;;;26.93;10.77;;;21.50;60.00;;;;;;5044907;28;20203;-91
2023/05/08 12:38:01;;;;;;;40.23;11.37;;;21.50;60.00;;;;;;5035473;28;20633;-92
2023/05/08 12:40:32;;;;;;;35.27;10.73;;;21.50;60.10;;;;;;5044779;28;20200;-92
2023/05/08 12:43:03;;;;;;;39.33;11.27;;;21.50;60.00;;;;;;5035990;28;20652;-91
2023/05/08 12:45:33;;;;;;;43.90;11.60;;;21.60;60.10;;;;;;5029411;28;20312;-93
2023/05/08 12:48:01;;;;;;;39.50;10.77;;;21.60;60.10;;;;;;5036508;28;20497;-92
2023/05/08 12:50:29;;;;;;;42.10;10.63;;;21.60;60.00;;;;;;5028805;28;20594;-92
2023/05/08 12:53:03;;;;;;;48.57;11.40;;;21.60;60.10;;;;;;5028993;28;20974;-93
2023/05/08 12:55:32;;;;;;;49.37;11.70;;;21.60;60.10;;;;;;5028507;28;20304;-92
2023/05/08 12:58:02;;;;;;;36.30;10.37;;;21.70;60.20;;;;;;5034054;28;20223;-95
2023/05/08 13:00:40;;;;;;;48.70;10.97;;;21.70;60.20;;;;;;5057286;28;20205;-92
2023/05/08 13:03:08;;;;;;;41.40;11.13;;;21.70;60.30;;;;;;5058372;28;20192;-92
2023/05/08 13:05:36;;;;;;;43.73;11.20;;;21.70;60.10;;;;;;5058029;28;20246;-92
2023/05/08 13:08:04;;;;;;;25.70;9.40;;;21.70;60.10;;;;;;5052779;28;20634;-92
2023/05/08 13:10:48;;;;;;;27.90;9.60;;;21.70;60.10;;;;;;5039995;28;20249;-92
2023/05/08 13:13:20;;;;;;;34.00;9.50;;;21.70;60.20;;;;;;5038183;28;20197;-91
2023/05/08 13:15:48;;;;;;;24.87;9.50;;;21.80;60.20;;;;;;5031134;28;20231;-92
2023/05/08 13:18:15;;;;;;;44.43;10.10;;;21.80;60.20;;;;;;5046294;28;20285;-93
2023/05/08 13:20:43;;;;;;;47.90;11.17;;;21.80;60.20;;;;;;5048504;28;20243;-91
2023/05/08 13:23:10;;;;;;;34.20;9.67;;;21.80;60.20;;;;;;5034303;28;20295;-92
2023/05/08 13:25:39;;;;;;;25.43;8.30;;;21.80;60.20;;;;;;5038703;28;20264;-91
2023/05/08 13:28:07;;;;;;;37.50;9.83;;;21.80;60.20;;;;;;5029743;28;20228;-91
2023/05/08 13:30:37;;;;;;;35.23;9.50;;;21.80;60.20;;;;;;5030452;28;20295;-91
2023/05/08 13:33:05;;;;;;;37.67;10.80;;;21.80;60.20;;;;;;5028078;28;20213;-91
2023/05/08 13:35:33;;;;;;;51.60;11.13;;;21.90;60.30;;;;;;5027116;28;20203;-92
2023/05/08 13:38:00;;;;;;;38.77;9.27;;;21.90;60.30;;;;;;5032692;28;20631;-93
2023/05/08 13:40:27;;;;;;;27.77;8.93;;;21.90;60.30;;;;;;5029470;28;20208;-94
2023/05/08 13:42:54;;;;;;;64.60;12.20;;;21.90;60.30;;;;;;5039610;28;20318;-93
2023/05/08 13:45:22;;;;;;;38.63;9.30;;;21.90;60.30;;;;;;5048327;28;20210;-92
2023/05/08 13:47:50;;;;;;;50.57;9.93;;;21.90;60.30;;;;;;5037532;28;20326;-91
2023/05/08 13:50:21;;;;;;;35.27;9.20;;;22.00;60.40;;;;;;5039130;28;20207;-91
2023/05/08 13:52:48;;;;;;;33.57;8.77;;;22.00;60.40;;;;;;5027890;28;20301;-92
2023/05/08 13:55:20;;;;;;;37.07;8.93;;;21.90;60.30;;;;;;5039583;28;20298;-93
2023/05/08 13:57:48;;;;;;;35.60;8.83;;;21.90;60.30;;;;;;5032379;28;20204;-92
2023/05/08 14:00:16;;;;;;;42.47;9.43;;;22.00;60.40;;;;;;5029449;28;20243;-92
2023/05/08 14:02:43;;;;;;;49.30;9.63;;;22.00;60.50;;;;;;5026604;28;20302;-93
2023/05/08 14:05:11;;;;;;;40.93;8.67;;;22.00;60.40;;;;;;5027043;28;20295;-93
2023/05/08 14:07:48;;;;;;;47.37;9.43;;;22.00;60.40;;;;;;5037976;28;20258;-96
2023/05/08 14:10:19;;;;;;;37.60;9.30;;;22.00;60.40;;;;;;5043294;28;20215;-95
2023/05/08 14:12:53;;;;;;;33.50;10.90;;;22.00;60.40;;;;;;5056652;28;20211;-94
2023/05/08 14:15:49;;;;;;;46.97;12.03;;;22.00;60.40;;;;;;5048549;28;20539;-96
2023/05/08 14:18:33;;;;;;;33.57;10.63;;;22.00;60.40;;;;;;5063496;28;20200;-96
2023/05/08 14:24:45;;;;;;;42.00;10.47;;;22.00;60.20;;;;;;5454158;23;20231;-96
2023/05/08 14:30:18;;;;;;;163.63;22.90;;;22.00;60.20;;;;;;5324604;22;21236;-96
2023/05/08 14:35:31;;;;;;;34.23;10.53;;;22.00;60.20;;;;;;5203632;22;20236;-96
2023/05/08 14:49:52;;;;;;;31.80;9.70;;;22.00;60.40;;;;;;5289545;22;20476;-96
2023/05/08 14:52:43;;;;;;;45.67;11.47;;;22.00;60.20;;;;;;5040159;28;20650;-95
2023/05/08 14:55:34;;;;;;;;;;;;;;;;;;;;;
2023/05/08 15:18:40;;;;;;;31.53;9.77;;;21.90;60.10;;;;;;5029450;28;20239;-96
2023/05/08 15:28:39;;;;;;;36.43;8.47;;;22.00;60.20;;;;;;4960686;28;20269;-96
2023/05/08 15:38:28;;;;;;;47.47;8.83;;;21.90;60.10;;;;;;5136747;27;20599;-96
2023/05/08 15:41:17;;;;;;;40.47;8.87;;;21.90;60.10;;;;;;5116180;28;20216;-96
2023/05/08 15:44:25;;;;;;;46.57;9.87;;;21.90;60.10;;;;;;5138357;27;20204;-96
2023/05/08 15:46:54;;;;;;;51.50;9.60;;;21.90;60.10;;;;;;5130265;27;20220;-95
2023/05/08 15:52:19;;;;;;;37.83;8.50;;;21.90;60.10;;;;;;5077821;27;20916;-95
2023/05/08 15:54:47;;;;;;;79.27;11.53;;;21.90;60.10;;;;;;5127534;28;20584;-89
2023/05/08 15:57:15;;;;;;;47.13;9.17;;;21.90;60.10;;;;;;5126363;27;20304;-93
2023/05/08 15:59:43;;;;;;;38.53;8.20;;;21.90;60.20;;;;;;5122524;27;20254;-93
2023/05/08 16:02:10;;;;;;;37.53;7.73;;;21.90;60.10;;;;;;5125403;27;20637;-93